sensor_id;sensor_type;location;lat;lon;timestamp;temperature;humidity
19220;DHT22;9744;49.364;7.484;2024-01-30T00:00:31;4.80;99.90
19220;DHT22;9744;49.364;7.484;2024-01-30T00:07:30;6.30;99.90
19220;DHT22;9744;49.364;7.484;2024-01-30T00:10:08;7.10;99.90
19220;DHT22;9744;49.364;7.484;2024-01-30T00:12:53;6.30;99.90
19220;DHT22;9744;49.364;7.484;2024-01-30T00:20:02;6.30;99.90
19220;DHT22;9744;49.364;7.484;2024-01-30T00:23:04;6.30;99.90
19220;DHT22;9744;49.364;7.484;2024-01-30T00:26:44;6.10;99.90
19220;DHT22;9744;49.364;7.484;2024-01-30T00:30:13;6.10;99.90
19220;DHT22;9744;49.364;7.484;2024-01-30T00:32:56;6.20;99.90
19220;DHT22;9744;49.364;7.484;2024-01-30T00:35:57;7.60;99.90
19220;DHT22;9744;49.364;7.484;2024-01-30T00:38:37;6.10;99.90
19220;DHT22;9744;49.364;7.484;2024-01-30T00:41:21;6.20;99.90
19220;DHT22;9744;49.364;7.484;2024-01-30T00:44:10;6.10;99.90
19220;DHT22;9744;49.364;7.484;2024-01-30T00:47:04;6.10;99.90
19220;DHT22;9744;49.364;7.484;2024-01-30T00:54:06;6.20;99.90
19220;DHT22;9744;49.364;7.484;2024-01-30T00:56:49;4.90;99.90
19220;DHT22;9744;49.364;7.484;2024-01-30T01:03:19;5.10;99.90
19220;DHT22;9744;49.364;7.484;2024-01-30T01:09:13;6.30;99.90
19220;DHT22;9744;49.364;7.484;2024-01-30T01:11:53;5.00;99.90
19220;DHT22;9744;49.364;7.484;2024-01-30T01:14:28;6.80;99.90
19220;DHT22;9744;49.364;7.484;2024-01-30T01:17:14;6.30;99.90
19220;DHT22;9744;49.364;7.484;2024-01-30T01:19:54;5.70;99.90
19220;DHT22;9744;49.364;7.484;2024-01-30T01:22:49;6.20;99.90
19220;DHT22;9744;49.364;7.484;2024-01-30T01:25:26;6.40;99.90
19220;DHT22;9744;49.364;7.484;2024-01-30T01:28:20;6.30;99.90
19220;DHT22;9744;49.364;7.484;2024-01-30T01:35:03;6.20;99.90
19220;DHT22;9744;49.364;7.484;2024-01-30T01:42:01;6.10;99.90
19220;DHT22;9744;49.364;7.484;2024-01-30T01:45:01;6.10;99.90
19220;DHT22;9744;49.364;7.484;2024-01-30T01:47:44;6.10;99.90
19220;DHT22;9744;49.364;7.484;2024-01-30T01:50:44;6.10;99.90
19220;DHT22;9744;49.364;7.484;2024-01-30T01:53:17;6.00;99.90
19220;DHT22;9744;49.364;7.484;2024-01-30T01:56:24;6.00;99.90
19220;DHT22;9744;49.364;7.484;2024-01-30T02:03:23;6.20;99.90
19220;DHT22;9744;49.364;7.484;2024-01-30T02:06:28;5.80;99.90
19220;DHT22;9744;49.364;7.484;2024-01-30T02:09:29;5.90;99.90
19220;DHT22;9744;49.364;7.484;2024-01-30T02:12:16;5.90;99.90
19220;DHT22;9744;49.364;7.484;2024-01-30T02:15:15;5.80;99.90
19220;DHT22;9744;49.364;7.484;2024-01-30T02:17:50;5.80;99.90
19220;DHT22;9744;49.364;7.484;2024-01-30T02:28:28;5.80;99.90
19220;DHT22;9744;49.364;7.484;2024-01-30T02:31:27;5.70;99.90
19220;DHT22;9744;49.364;7.484;2024-01-30T02:34:40;5.80;99.90
19220;DHT22;9744;49.364;7.484;2024-01-30T02:38:04;5.80;99.90
19220;DHT22;9744;49.364;7.484;2024-01-30T02:40:56;5.30;99.90
19220;DHT22;9744;49.364;7.484;2024-01-30T02:43:55;6.00;99.90
19220;DHT22;9744;49.364;7.484;2024-01-30T02:46:35;5.70;99.90
19220;DHT22;9744;49.364;7.484;2024-01-30T02:49:24;6.10;99.90
19220;DHT22;9744;49.364;7.484;2024-01-30T02:52:09;5.70;99.90
19220;DHT22;9744;49.364;7.484;2024-01-30T02:55:32;5.70;99.90
19220;DHT22;9744;49.364;7.484;2024-01-30T03:02:27;5.60;99.90
19220;DHT22;9744;49.364;7.484;2024-01-30T03:05:08;5.50;99.90
19220;DHT22;9744;49.364;7.484;2024-01-30T03:07:43;5.50;99.90
19220;DHT22;9744;49.364;7.484;2024-01-30T03:10:36;6.00;99.90
19220;DHT22;9744;49.364;7.484;2024-01-30T03:13:59;5.60;99.90
19220;DHT22;9744;49.364;7.484;2024-01-30T03:23:36;5.90;99.90
19220;DHT22;9744;49.364;7.484;2024-01-30T03:26:32;5.70;99.90
19220;DHT22;9744;49.364;7.484;2024-01-30T03:29:18;5.30;99.90
19220;DHT22;9744;49.364;7.484;2024-01-30T03:31:53;5.50;99.90
19220;DHT22;9744;49.364;7.484;2024-01-30T03:34:22;5.50;99.90
19220;DHT22;9744;49.364;7.484;2024-01-30T03:37:01;5.50;99.90
19220;DHT22;9744;49.364;7.484;2024-01-30T03:39:35;5.00;99.90
19220;DHT22;9744;49.364;7.484;2024-01-30T03:42:07;5.40;99.90
19220;DHT22;9744;49.364;7.484;2024-01-30T03:48:35;5.40;99.90
19220;DHT22;9744;49.364;7.484;2024-01-30T03:51:08;5.40;99.90
19220;DHT22;9744;49.364;7.484;2024-01-30T03:53:43;4.80;99.90
19220;DHT22;9744;49.364;7.484;2024-01-30T03:56:14;5.30;99.90
19220;DHT22;9744;49.364;7.484;2024-01-30T03:58:45;5.30;99.90
19220;DHT22;9744;49.364;7.484;2024-01-30T04:01:16;5.30;99.90
19220;DHT22;9744;49.364;7.484;2024-01-30T04:03:47;4.60;99.90
19220;DHT22;9744;49.364;7.484;2024-01-30T04:10:19;6.20;99.90
19220;DHT22;9744;49.364;7.484;2024-01-30T04:12:53;4.60;99.90
19220;DHT22;9744;49.364;7.484;2024-01-30T04:15:22;5.30;99.90
19220;DHT22;9744;49.364;7.484;2024-01-30T04:18:01;5.30;99.90
19220;DHT22;9744;49.364;7.484;2024-01-30T04:20:31;5.30;99.90
19220;DHT22;9744;49.364;7.484;2024-01-30T04:23:10;5.30;99.90
19220;DHT22;9744;49.364;7.484;2024-01-30T04:25:44;5.30;99.90
19220;DHT22;9744;49.364;7.484;2024-01-30T04:28:17;5.20;99.90
19220;DHT22;9744;49.364;7.484;2024-01-30T04:30:45;5.20;99.90
19220;DHT22;9744;49.364;7.484;2024-01-30T04:33:18;5.20;99.90
19220;DHT22;9744;49.364;7.484;2024-01-30T04:35:50;5.20;99.90
19220;DHT22;9744;49.364;7.484;2024-01-30T04:38:21;5.10;99.90
19220;DHT22;9744;49.364;7.484;2024-01-30T04:40:58;5.30;99.90
19220;DHT22;9744;49.364;7.484;2024-01-30T04:47:44;4.10;99.90
19220;DHT22;9744;49.364;7.484;2024-01-30T04:50:24;5.20;99.90
19220;DHT22;9744;49.364;7.484;2024-01-30T04:52:54;5.20;99.90
19220;DHT22;9744;49.364;7.484;2024-01-30T04:55:23;4.90;99.90
19220;DHT22;9744;49.364;7.484;2024-01-30T04:57:52;5.30;99.90
19220;DHT22;9744;49.364;7.484;2024-01-30T05:00:24;5.30;99.90
19220;DHT22;9744;49.364;7.484;2024-01-30T05:02:57;5.30;99.90
19220;DHT22;9744;49.364;7.484;2024-01-30T05:05:27;4.80;99.90
19220;DHT22;9744;49.364;7.484;2024-01-30T05:07:56;5.40;99.90
19220;DHT22;9744;49.364;7.484;2024-01-30T05:10:28;5.30;99.90
19220;DHT22;9744;49.364;7.484;2024-01-30T05:12:57;4.00;99.90
19220;DHT22;9744;49.364;7.484;2024-01-30T05:15:28;5.30;99.90
19220;DHT22;9744;49.364;7.484;2024-01-30T05:18:01;5.20;99.90
19220;DHT22;9744;49.364;7.484;2024-01-30T05:20:45;6.50;99.90
19220;DHT22;9744;49.364;7.484;2024-01-30T05:27:16;5.20;99.90
19220;DHT22;9744;49.364;7.484;2024-01-30T05:29:47;5.20;99.90
19220;DHT22;9744;49.364;7.484;2024-01-30T05:32:26;5.30;99.90
19220;DHT22;9744;49.364;7.484;2024-01-30T05:34:55;5.20;99.90
19220;DHT22;9744;49.364;7.484;2024-01-30T05:37:23;5.10;99.90
19220;DHT22;9744;49.364;7.484;2024-01-30T05:39:50;5.20;99.90
19220;DHT22;9744;49.364;7.484;2024-01-30T05:42:18;5.10;99.90
19220;DHT22;9744;49.364;7.484;2024-01-30T05:44:46;5.10;99.90
19220;DHT22;9744;49.364;7.484;2024-01-30T05:47:13;5.10;99.90
19220;DHT22;9744;49.364;7.484;2024-01-30T05:49:41;5.10;99.90
19220;DHT22;9744;49.364;7.484;2024-01-30T05:52:10;5.10;99.90
19220;DHT22;9744;49.364;7.484;2024-01-30T05:54:37;5.10;99.90
19220;DHT22;9744;49.364;7.484;2024-01-30T05:57:16;5.10;99.90
19220;DHT22;9744;49.364;7.484;2024-01-30T05:59:48;5.10;99.90
19220;DHT22;9744;49.364;7.484;2024-01-30T06:02:17;5.00;99.90
19220;DHT22;9744;49.364;7.484;2024-01-30T06:04:45;5.00;99.90
19220;DHT22;9744;49.364;7.484;2024-01-30T06:07:14;4.90;99.90
19220;DHT22;9744;49.364;7.484;2024-01-30T06:13:45;5.00;99.90
19220;DHT22;9744;49.364;7.484;2024-01-30T06:16:14;5.00;99.90
19220;DHT22;9744;49.364;7.484;2024-01-30T06:18:42;5.40;99.90
19220;DHT22;9744;49.364;7.484;2024-01-30T06:21:10;5.00;99.90
19220;DHT22;9744;49.364;7.484;2024-01-30T06:23:42;5.00;99.90
19220;DHT22;9744;49.364;7.484;2024-01-30T06:29:36;5.00;99.90
19220;DHT22;9744;49.364;7.484;2024-01-30T06:32:04;5.20;99.90
19220;DHT22;9744;49.364;7.484;2024-01-30T06:34:34;5.00;99.90
19220;DHT22;9744;49.364;7.484;2024-01-30T06:37:02;5.00;99.90
19220;DHT22;9744;49.364;7.484;2024-01-30T06:39:34;4.90;99.90
19220;DHT22;9744;49.364;7.484;2024-01-30T06:42:01;5.00;99.90
19220;DHT22;9744;49.364;7.484;2024-01-30T06:44:28;4.90;99.90
19220;DHT22;9744;49.364;7.484;2024-01-30T06:46:56;4.90;99.90
19220;DHT22;9744;49.364;7.484;2024-01-30T06:49:48;4.90;99.90
19220;DHT22;9744;49.364;7.484;2024-01-30T06:52:15;4.80;99.90
19220;DHT22;9744;49.364;7.484;2024-01-30T06:54:44;4.80;99.90
19220;DHT22;9744;49.364;7.484;2024-01-30T06:57:11;4.80;99.90
19220;DHT22;9744;49.364;7.484;2024-01-30T06:59:40;4.80;99.90
19220;DHT22;9744;49.364;7.484;2024-01-30T07:02:10;4.80;99.90
19220;DHT22;9744;49.364;7.484;2024-01-30T07:04:40;4.90;99.90
19220;DHT22;9744;49.364;7.484;2024-01-30T07:07:07;4.80;99.90
19220;DHT22;9744;49.364;7.484;2024-01-30T07:09:39;4.80;99.90
19220;DHT22;9744;49.364;7.484;2024-01-30T07:12:10;4.80;99.90
19220;DHT22;9744;49.364;7.484;2024-01-30T07:14:37;4.80;99.90
19220;DHT22;9744;49.364;7.484;2024-01-30T07:17:06;4.80;99.90
19220;DHT22;9744;49.364;7.484;2024-01-30T07:19:33;4.80;99.90
19220;DHT22;9744;49.364;7.484;2024-01-30T07:22:00;4.90;99.90
19220;DHT22;9744;49.364;7.484;2024-01-30T07:24:31;4.80;99.90
19220;DHT22;9744;49.364;7.484;2024-01-30T07:27:01;4.80;99.90
19220;DHT22;9744;49.364;7.484;2024-01-30T07:29:30;4.80;99.90
19220;DHT22;9744;49.364;7.484;2024-01-30T07:31:58;4.90;99.90
19220;DHT22;9744;49.364;7.484;2024-01-30T07:34:26;4.90;99.90
19220;DHT22;9744;49.364;7.484;2024-01-30T07:36:54;4.90;99.90
19220;DHT22;9744;49.364;7.484;2024-01-30T07:42:59;5.00;99.90
19220;DHT22;9744;49.364;7.484;2024-01-30T07:45:30;5.00;99.90
19220;DHT22;9744;49.364;7.484;2024-01-30T07:47:59;5.00;99.90
19220;DHT22;9744;49.364;7.484;2024-01-30T07:50:26;5.00;99.90
19220;DHT22;9744;49.364;7.484;2024-01-30T07:52:55;5.00;99.90
19220;DHT22;9744;49.364;7.484;2024-01-30T07:55:24;5.00;99.90
19220;DHT22;9744;49.364;7.484;2024-01-30T07:57:57;5.00;99.90
19220;DHT22;9744;49.364;7.484;2024-01-30T08:00:25;4.90;99.90
19220;DHT22;9744;49.364;7.484;2024-01-30T08:02:54;4.90;99.90
19220;DHT22;9744;49.364;7.484;2024-01-30T08:05:26;5.00;99.90
19220;DHT22;9744;49.364;7.484;2024-01-30T08:07:57;4.20;99.90
19220;DHT22;9744;49.364;7.484;2024-01-30T08:10:53;5.00;99.90
19220;DHT22;9744;49.364;7.484;2024-01-30T08:13:37;5.50;99.90
19220;DHT22;9744;49.364;7.484;2024-01-30T08:16:05;5.00;99.90
19220;DHT22;9744;49.364;7.484;2024-01-30T08:18:37;5.10;99.90
19220;DHT22;9744;49.364;7.484;2024-01-30T08:21:08;5.10;99.90
19220;DHT22;9744;49.364;7.484;2024-01-30T08:23:38;5.20;99.90
19220;DHT22;9744;49.364;7.484;2024-01-30T08:26:09;5.10;99.90
19220;DHT22;9744;49.364;7.484;2024-01-30T08:28:38;5.20;99.90
19220;DHT22;9744;49.364;7.484;2024-01-30T08:31:16;5.10;99.90
19220;DHT22;9744;49.364;7.484;2024-01-30T08:34:00;4.90;99.90
19220;DHT22;9744;49.364;7.484;2024-01-30T08:36:28;5.30;99.90
19220;DHT22;9744;49.364;7.484;2024-01-30T08:38:56;5.30;99.90
19220;DHT22;9744;49.364;7.484;2024-01-30T08:41:25;5.30;99.90
19220;DHT22;9744;49.364;7.484;2024-01-30T08:43:54;5.30;99.90
19220;DHT22;9744;49.364;7.484;2024-01-30T08:46:30;5.30;99.90
19220;DHT22;9744;49.364;7.484;2024-01-30T08:49:20;5.30;99.90
19220;DHT22;9744;49.364;7.484;2024-01-30T08:51:48;5.40;99.90
19220;DHT22;9744;49.364;7.484;2024-01-30T08:54:17;5.30;99.90
19220;DHT22;9744;49.364;7.484;2024-01-30T08:56:44;5.30;99.90
19220;DHT22;9744;49.364;7.484;2024-01-30T08:59:12;5.40;99.90
19220;DHT22;9744;49.364;7.484;2024-01-30T09:01:39;5.40;99.90
19220;DHT22;9744;49.364;7.484;2024-01-30T09:04:07;5.50;99.90
19220;DHT22;9744;49.364;7.484;2024-01-30T09:06:36;5.50;99.90
19220;DHT22;9744;49.364;7.484;2024-01-30T09:09:15;5.60;99.90
19220;DHT22;9744;49.364;7.484;2024-01-30T09:11:44;5.70;99.90
19220;DHT22;9744;49.364;7.484;2024-01-30T09:14:11;5.60;99.90
19220;DHT22;9744;49.364;7.484;2024-01-30T09:16:38;5.70;99.90
19220;DHT22;9744;49.364;7.484;2024-01-30T09:19:06;5.80;99.90
19220;DHT22;9744;49.364;7.484;2024-01-30T09:21:33;5.90;99.90
19220;DHT22;9744;49.364;7.484;2024-01-30T09:24:03;6.00;99.90
19220;DHT22;9744;49.364;7.484;2024-01-30T09:26:31;6.10;99.90
19220;DHT22;9744;49.364;7.484;2024-01-30T09:29:00;6.20;99.90
19220;DHT22;9744;49.364;7.484;2024-01-30T09:31:34;6.30;99.90
19220;DHT22;9744;49.364;7.484;2024-01-30T09:34:20;6.00;99.90
19220;DHT22;9744;49.364;7.484;2024-01-30T09:36:47;6.30;99.90
19220;DHT22;9744;49.364;7.484;2024-01-30T09:39:16;6.40;99.90
19220;DHT22;9744;49.364;7.484;2024-01-30T09:41:55;6.40;99.90
19220;DHT22;9744;49.364;7.484;2024-01-30T09:44:29;6.50;99.90
19220;DHT22;9744;49.364;7.484;2024-01-30T09:47:03;6.60;99.90
19220;DHT22;9744;49.364;7.484;2024-01-30T09:49:32;6.70;99.90
19220;DHT22;9744;49.364;7.484;2024-01-30T09:52:01;6.90;99.90
19220;DHT22;9744;49.364;7.484;2024-01-30T09:54:31;6.90;99.90
19220;DHT22;9744;49.364;7.484;2024-01-30T09:56:58;6.90;99.90
19220;DHT22;9744;49.364;7.484;2024-01-30T09:59:26;7.00;99.90
19220;DHT22;9744;49.364;7.484;2024-01-30T10:01:54;7.00;99.90
19220;DHT22;9744;49.364;7.484;2024-01-30T10:04:25;7.10;99.90
19220;DHT22;9744;49.364;7.484;2024-01-30T10:06:52;7.10;99.90
19220;DHT22;9744;49.364;7.484;2024-01-30T10:09:21;7.20;99.90
19220;DHT22;9744;49.364;7.484;2024-01-30T10:11:54;7.20;99.90
19220;DHT22;9744;49.364;7.484;2024-01-30T10:14:21;7.20;99.90
19220;DHT22;9744;49.364;7.484;2024-01-30T10:16:48;7.20;99.90
19220;DHT22;9744;49.364;7.484;2024-01-30T10:19:18;7.20;99.90
19220;DHT22;9744;49.364;7.484;2024-01-30T10:21:46;7.20;99.90
19220;DHT22;9744;49.364;7.484;2024-01-30T10:24:14;7.20;99.90
19220;DHT22;9744;49.364;7.484;2024-01-30T10:26:43;7.20;99.90
19220;DHT22;9744;49.364;7.484;2024-01-30T10:29:16;7.30;99.90
19220;DHT22;9744;49.364;7.484;2024-01-30T10:31:43;7.30;99.90
19220;DHT22;9744;49.364;7.484;2024-01-30T10:34:10;7.30;99.90
19220;DHT22;9744;49.364;7.484;2024-01-30T10:36:40;7.30;99.90
19220;DHT22;9744;49.364;7.484;2024-01-30T10:39:08;7.40;99.90
19220;DHT22;9744;49.364;7.484;2024-01-30T10:41:44;7.40;99.90
19220;DHT22;9744;49.364;7.484;2024-01-30T10:44:19;7.40;99.90
19220;DHT22;9744;49.364;7.484;2024-01-30T10:46:55;7.40;99.90
19220;DHT22;9744;49.364;7.484;2024-01-30T10:49:25;7.40;99.90
19220;DHT22;9744;49.364;7.484;2024-01-30T10:51:53;7.40;99.90
19220;DHT22;9744;49.364;7.484;2024-01-30T10:54:23;7.40;99.90
19220;DHT22;9744;49.364;7.484;2024-01-30T10:56:57;7.40;99.90
19220;DHT22;9744;49.364;7.484;2024-01-30T10:59:27;7.40;99.90
19220;DHT22;9744;49.364;7.484;2024-01-30T11:01:57;7.50;99.90
19220;DHT22;9744;49.364;7.484;2024-01-30T11:04:25;7.50;99.90
19220;DHT22;9744;49.364;7.484;2024-01-30T11:06:54;7.50;99.90
19220;DHT22;9744;49.364;7.484;2024-01-30T11:09:21;7.50;99.90
19220;DHT22;9744;49.364;7.484;2024-01-30T11:11:50;7.50;99.90
19220;DHT22;9744;49.364;7.484;2024-01-30T11:14:23;7.60;99.90
19220;DHT22;9744;49.364;7.484;2024-01-30T11:16:52;7.60;99.90
19220;DHT22;9744;49.364;7.484;2024-01-30T11:19:23;7.70;99.90
19220;DHT22;9744;49.364;7.484;2024-01-30T11:21:52;7.70;99.90
19220;DHT22;9744;49.364;7.484;2024-01-30T11:24:20;7.70;99.90
19220;DHT22;9744;49.364;7.484;2024-01-30T11:26:48;7.80;99.90
19220;DHT22;9744;49.364;7.484;2024-01-30T11:29:17;7.90;99.90
19220;DHT22;9744;49.364;7.484;2024-01-30T11:31:54;7.90;99.90
19220;DHT22;9744;49.364;7.484;2024-01-30T11:34:22;8.00;99.90
19220;DHT22;9744;49.364;7.484;2024-01-30T11:36:53;8.00;99.90
19220;DHT22;9744;49.364;7.484;2024-01-30T11:39:25;8.00;99.90
19220;DHT22;9744;49.364;7.484;2024-01-30T11:41:56;8.10;99.90
19220;DHT22;9744;49.364;7.484;2024-01-30T11:44:26;8.20;99.90
19220;DHT22;9744;49.364;7.484;2024-01-30T11:46:56;8.20;99.90
19220;DHT22;9744;49.364;7.484;2024-01-30T11:49:23;8.30;99.90
19220;DHT22;9744;49.364;7.484;2024-01-30T11:51:51;8.30;99.90
19220;DHT22;9744;49.364;7.484;2024-01-30T11:54:19;8.30;99.90
19220;DHT22;9744;49.364;7.484;2024-01-30T11:56:46;8.30;99.90
19220;DHT22;9744;49.364;7.484;2024-01-30T11:59:14;8.40;99.90
19220;DHT22;9744;49.364;7.484;2024-01-30T12:01:43;8.40;99.90
19220;DHT22;9744;49.364;7.484;2024-01-30T12:04:16;8.40;99.90
19220;DHT22;9744;49.364;7.484;2024-01-30T12:06:44;8.40;99.90
19220;DHT22;9744;49.364;7.484;2024-01-30T12:09:11;8.50;99.90
19220;DHT22;9744;49.364;7.484;2024-01-30T12:11:45;8.60;99.90
19220;DHT22;9744;49.364;7.484;2024-01-30T12:14:16;8.70;99.90
19220;DHT22;9744;49.364;7.484;2024-01-30T12:16:48;8.70;99.90
19220;DHT22;9744;49.364;7.484;2024-01-30T12:19:23;8.70;99.90
19220;DHT22;9744;49.364;7.484;2024-01-30T12:21:55;8.80;99.90
19220;DHT22;9744;49.364;7.484;2024-01-30T12:24:23;8.90;99.90
19220;DHT22;9744;49.364;7.484;2024-01-30T12:26:50;9.00;99.90
19220;DHT22;9744;49.364;7.484;2024-01-30T12:29:21;9.10;99.90
19220;DHT22;9744;49.364;7.484;2024-01-30T12:31:53;9.10;99.90
19220;DHT22;9744;49.364;7.484;2024-01-30T12:34:20;9.20;99.90
19220;DHT22;9744;49.364;7.484;2024-01-30T12:36:49;9.30;99.90
19220;DHT22;9744;49.364;7.484;2024-01-30T12:39:17;9.40;99.90
19220;DHT22;9744;49.364;7.484;2024-01-30T12:41:44;9.40;99.90
19220;DHT22;9744;49.364;7.484;2024-01-30T12:44:13;9.30;99.90
19220;DHT22;9744;49.364;7.484;2024-01-30T12:46:41;9.40;99.90
19220;DHT22;9744;49.364;7.484;2024-01-30T12:49:08;9.50;99.90
19220;DHT22;9744;49.364;7.484;2024-01-30T12:51:35;9.50;99.90
19220;DHT22;9744;49.364;7.484;2024-01-30T12:54:07;9.50;99.90
19220;DHT22;9744;49.364;7.484;2024-01-30T12:56:34;9.50;99.90
19220;DHT22;9744;49.364;7.484;2024-01-30T12:59:02;9.50;99.90
19220;DHT22;9744;49.364;7.484;2024-01-30T13:01:29;9.40;99.90
19220;DHT22;9744;49.364;7.484;2024-01-30T13:03:57;9.40;99.90
19220;DHT22;9744;49.364;7.484;2024-01-30T13:06:25;9.40;99.90
19220;DHT22;9744;49.364;7.484;2024-01-30T13:08:53;9.50;99.90
19220;DHT22;9744;49.364;7.484;2024-01-30T13:11:21;9.60;99.90
19220;DHT22;9744;49.364;7.484;2024-01-30T13:13:51;9.70;99.90
19220;DHT22;9744;49.364;7.484;2024-01-30T13:16:18;9.70;99.90
19220;DHT22;9744;49.364;7.484;2024-01-30T13:18:46;9.70;99.90
19220;DHT22;9744;49.364;7.484;2024-01-30T13:21:13;9.70;99.90
19220;DHT22;9744;49.364;7.484;2024-01-30T13:23:40;9.70;99.90
19220;DHT22;9744;49.364;7.484;2024-01-30T13:26:07;9.70;99.90
19220;DHT22;9744;49.364;7.484;2024-01-30T13:28:36;9.60;99.90
19220;DHT22;9744;49.364;7.484;2024-01-30T13:31:06;9.50;99.90
19220;DHT22;9744;49.364;7.484;2024-01-30T13:33:34;9.40;99.90
19220;DHT22;9744;49.364;7.484;2024-01-30T13:36:01;9.40;99.90
19220;DHT22;9744;49.364;7.484;2024-01-30T13:38:52;9.40;99.90
19220;DHT22;9744;49.364;7.484;2024-01-30T13:41:19;9.40;99.90
19220;DHT22;9744;49.364;7.484;2024-01-30T13:43:50;9.30;99.90
19220;DHT22;9744;49.364;7.484;2024-01-30T13:46:19;9.40;99.90
19220;DHT22;9744;49.364;7.484;2024-01-30T13:48:46;9.30;99.90
19220;DHT22;9744;49.364;7.484;2024-01-30T13:51:13;9.30;99.90
19220;DHT22;9744;49.364;7.484;2024-01-30T13:53:43;9.30;99.90
19220;DHT22;9744;49.364;7.484;2024-01-30T13:56:10;9.20;99.90
19220;DHT22;9744;49.364;7.484;2024-01-30T13:58:38;9.30;99.90
19220;DHT22;9744;49.364;7.484;2024-01-30T14:01:07;9.20;99.90
19220;DHT22;9744;49.364;7.484;2024-01-30T14:03:35;9.20;99.90
19220;DHT22;9744;49.364;7.484;2024-01-30T14:06:03;9.20;99.90
19220;DHT22;9744;49.364;7.484;2024-01-30T14:08:32;9.10;99.90
19220;DHT22;9744;49.364;7.484;2024-01-30T14:10:59;9.10;99.90
19220;DHT22;9744;49.364;7.484;2024-01-30T14:13:27;9.10;99.90
19220;DHT22;9744;49.364;7.484;2024-01-30T14:15:56;9.10;99.90
19220;DHT22;9744;49.364;7.484;2024-01-30T14:18:26;9.00;99.90
19220;DHT22;9744;49.364;7.484;2024-01-30T14:20:53;9.00;99.90
19220;DHT22;9744;49.364;7.484;2024-01-30T14:23:20;9.00;99.90
19220;DHT22;9744;49.364;7.484;2024-01-30T14:25:48;9.00;99.90
19220;DHT22;9744;49.364;7.484;2024-01-30T14:28:17;9.00;99.90
19220;DHT22;9744;49.364;7.484;2024-01-30T14:30:44;8.90;99.90
19220;DHT22;9744;49.364;7.484;2024-01-30T14:33:11;8.90;99.90
19220;DHT22;9744;49.364;7.484;2024-01-30T14:39:16;8.90;99.90
19220;DHT22;9744;49.364;7.484;2024-01-30T14:41:44;8.80;99.90
19220;DHT22;9744;49.364;7.484;2024-01-30T14:44:11;8.80;99.90
19220;DHT22;9744;49.364;7.484;2024-01-30T14:46:39;8.80;99.90
19220;DHT22;9744;49.364;7.484;2024-01-30T14:49:07;8.70;99.90
19220;DHT22;9744;49.364;7.484;2024-01-30T14:51:35;8.70;99.90
19220;DHT22;9744;49.364;7.484;2024-01-30T14:54:06;8.70;99.90
19220;DHT22;9744;49.364;7.484;2024-01-30T14:56:35;8.70;99.90
19220;DHT22;9744;49.364;7.484;2024-01-30T14:59:02;8.60;99.90
19220;DHT22;9744;49.364;7.484;2024-01-30T15:01:29;8.60;99.90
19220;DHT22;9744;49.364;7.484;2024-01-30T15:03:56;8.60;99.90
19220;DHT22;9744;49.364;7.484;2024-01-30T15:06:24;8.60;99.90
19220;DHT22;9744;49.364;7.484;2024-01-30T15:08:52;8.60;99.90
19220;DHT22;9744;49.364;7.484;2024-01-30T15:11:20;8.60;99.90
19220;DHT22;9744;49.364;7.484;2024-01-30T15:13:49;8.60;99.90
19220;DHT22;9744;49.364;7.484;2024-01-30T15:16:16;8.60;99.90
19220;DHT22;9744;49.364;7.484;2024-01-30T15:18:44;8.60;99.90
19220;DHT22;9744;49.364;7.484;2024-01-30T15:21:11;8.60;99.90
19220;DHT22;9744;49.364;7.484;2024-01-30T15:23:38;8.60;99.90
19220;DHT22;9744;49.364;7.484;2024-01-30T15:26:06;8.50;99.90
19220;DHT22;9744;49.364;7.484;2024-01-30T15:29:01;8.50;99.90
19220;DHT22;9744;49.364;7.484;2024-01-30T15:31:30;8.50;99.90
19220;DHT22;9744;49.364;7.484;2024-01-30T15:33:57;8.50;99.90
19220;DHT22;9744;49.364;7.484;2024-01-30T15:36:24;8.50;99.90
19220;DHT22;9744;49.364;7.484;2024-01-30T15:38:52;8.50;99.90
19220;DHT22;9744;49.364;7.484;2024-01-30T15:41:19;8.50;99.90
19220;DHT22;9744;49.364;7.484;2024-01-30T15:43:47;8.50;99.90
19220;DHT22;9744;49.364;7.484;2024-01-30T15:46:15;8.40;99.90
19220;DHT22;9744;49.364;7.484;2024-01-30T15:48:43;8.50;99.90
19220;DHT22;9744;49.364;7.484;2024-01-30T15:51:10;8.50;99.90
19220;DHT22;9744;49.364;7.484;2024-01-30T15:53:37;8.50;99.90
19220;DHT22;9744;49.364;7.484;2024-01-30T15:56:05;8.50;99.90
19220;DHT22;9744;49.364;7.484;2024-01-30T15:58:35;8.40;99.90
19220;DHT22;9744;49.364;7.484;2024-01-30T16:01:03;8.40;99.90
19220;DHT22;9744;49.364;7.484;2024-01-30T16:03:31;8.40;99.90
19220;DHT22;9744;49.364;7.484;2024-01-30T16:06:02;8.40;99.90
19220;DHT22;9744;49.364;7.484;2024-01-30T16:08:29;8.40;99.90
19220;DHT22;9744;49.364;7.484;2024-01-30T16:10:56;8.40;99.90
19220;DHT22;9744;49.364;7.484;2024-01-30T16:13:24;8.40;99.90
19220;DHT22;9744;49.364;7.484;2024-01-30T16:15:53;8.40;99.90
19220;DHT22;9744;49.364;7.484;2024-01-30T16:18:20;8.40;99.90
19220;DHT22;9744;49.364;7.484;2024-01-30T16:20:49;8.30;99.90
19220;DHT22;9744;49.364;7.484;2024-01-30T16:23:16;8.40;99.90
19220;DHT22;9744;49.364;7.484;2024-01-30T16:25:44;8.40;99.90
19220;DHT22;9744;49.364;7.484;2024-01-30T16:28:11;8.30;99.90
19220;DHT22;9744;49.364;7.484;2024-01-30T16:30:38;8.30;99.90
19220;DHT22;9744;49.364;7.484;2024-01-30T16:33:05;8.30;99.90
19220;DHT22;9744;49.364;7.484;2024-01-30T16:35:32;8.30;99.90
19220;DHT22;9744;49.364;7.484;2024-01-30T16:38:02;8.30;99.90
19220;DHT22;9744;49.364;7.484;2024-01-30T16:40:29;8.30;99.90
19220;DHT22;9744;49.364;7.484;2024-01-30T16:42:56;8.30;99.90
19220;DHT22;9744;49.364;7.484;2024-01-30T16:45:23;8.40;99.90
19220;DHT22;9744;49.364;7.484;2024-01-30T16:47:50;8.40;99.90
19220;DHT22;9744;49.364;7.484;2024-01-30T16:50:18;8.40;99.90
19220;DHT22;9744;49.364;7.484;2024-01-30T16:52:45;8.30;99.90
19220;DHT22;9744;49.364;7.484;2024-01-30T16:55:14;8.30;99.90
19220;DHT22;9744;49.364;7.484;2024-01-30T16:57:42;8.30;99.90
19220;DHT22;9744;49.364;7.484;2024-01-30T17:00:10;8.30;99.90
19220;DHT22;9744;49.364;7.484;2024-01-30T17:02:37;8.30;99.90
19220;DHT22;9744;49.364;7.484;2024-01-30T17:05:05;8.40;99.90
19220;DHT22;9744;49.364;7.484;2024-01-30T17:07:32;8.40;99.90
19220;DHT22;9744;49.364;7.484;2024-01-30T17:10:01;8.30;99.90
19220;DHT22;9744;49.364;7.484;2024-01-30T17:12:30;8.30;99.90
19220;DHT22;9744;49.364;7.484;2024-01-30T17:14:58;8.40;99.90
19220;DHT22;9744;49.364;7.484;2024-01-30T17:17:27;8.30;99.90
19220;DHT22;9744;49.364;7.484;2024-01-30T17:19:54;8.30;99.90
19220;DHT22;9744;49.364;7.484;2024-01-30T17:22:21;8.30;99.90
19220;DHT22;9744;49.364;7.484;2024-01-30T17:24:48;8.30;99.90
19220;DHT22;9744;49.364;7.484;2024-01-30T17:27:16;8.40;99.90
19220;DHT22;9744;49.364;7.484;2024-01-30T17:29:45;8.40;99.90
19220;DHT22;9744;49.364;7.484;2024-01-30T17:32:12;8.40;99.90
19220;DHT22;9744;49.364;7.484;2024-01-30T17:34:40;8.40;99.90
19220;DHT22;9744;49.364;7.484;2024-01-30T17:37:07;8.30;99.90
19220;DHT22;9744;49.364;7.484;2024-01-30T17:39:35;8.30;99.90
19220;DHT22;9744;49.364;7.484;2024-01-30T17:42:03;8.40;99.90
19220;DHT22;9744;49.364;7.484;2024-01-30T17:44:30;8.30;99.90
19220;DHT22;9744;49.364;7.484;2024-01-30T17:47:00;8.40;99.90
19220;DHT22;9744;49.364;7.484;2024-01-30T17:49:27;8.40;99.90
19220;DHT22;9744;49.364;7.484;2024-01-30T17:51:56;8.40;99.90
19220;DHT22;9744;49.364;7.484;2024-01-30T17:54:23;8.40;99.90
19220;DHT22;9744;49.364;7.484;2024-01-30T17:56:51;8.40;99.90
19220;DHT22;9744;49.364;7.484;2024-01-30T17:59:18;8.40;99.90